Time;durP1;ratioP1;P1;durP2;ratioP2;P2;SDS_P1;SDS_P2;PMS_P1;PMS_P2;Temp;Humidity;BMP_temperature;BMP_pressure;BME280_temperature;BME280_humidity;BME280_pressure;Samples;Min_cycle;Max_cycle;Signal;HPM_P1;HPM_P2
2022/05/28 00:01:29;;;;;;;23.52;10.23;;;20.80;99.90;;;;;;5015178;28;20488;-70
2022/05/28 00:03:57;;;;;;;17.40;11.02;;;20.80;99.90;;;;;;5010156;28;20058;-71
2022/05/28 00:06:24;;;;;;;19.48;10.85;;;20.80;99.90;;;;;;4997776;28;20030;-72
2022/05/28 00:08:50;;;;;;;20.52;10.30;;;20.80;99.90;;;;;;4994701;28;20105;-71
2022/05/28 00:11:23;;;;;;;21.50;11.50;;;20.70;99.90;;;;;;5010504;28;20022;-71
2022/05/28 00:13:50;;;;;;;15.32;10.63;;;20.80;99.90;;;;;;5012092;28;20038;-72
2022/05/28 00:16:17;;;;;;;18.92;11.07;;;20.80;99.90;;;;;;4995019;28;20050;-72
2022/05/28 00:18:44;;;;;;;15.38;10.63;;;20.70;99.90;;;;;;4994959;28;20401;-71
2022/05/28 00:21:11;;;;;;;19.20;10.75;;;20.70;99.90;;;;;;4995645;28;20029;-70
2022/05/28 00:23:38;;;;;;;17.33;9.38;;;20.70;99.90;;;;;;4994150;28;20030;-71
2022/05/28 00:26:05;;;;;;;16.95;9.80;;;20.70;99.90;;;;;;4992947;28;20101;-70
2022/05/28 00:28:32;;;;;;;17.38;10.00;;;20.70;99.90;;;;;;4994415;28;20042;-71
2022/05/28 00:30:59;;;;;;;18.65;10.57;;;20.70;99.90;;;;;;5012704;28;20018;-71
2022/05/28 00:33:25;;;;;;;18.40;10.43;;;20.80;99.90;;;;;;5009790;28;20034;-71
2022/05/28 00:35:51;;;;;;;18.58;10.00;;;20.90;99.90;;;;;;4995104;28;20027;-72
2022/05/28 00:38:17;;;;;;;17.05;10.23;;;20.90;99.90;;;;;;4995083;28;20035;-71
2022/05/28 00:40:48;;;;;;;16.77;9.43;;;20.90;99.90;;;;;;4994791;28;20022;-71
2022/05/28 00:43:14;;;;;;;18.75;10.77;;;20.70;99.90;;;;;;4993985;28;20473;-72
2022/05/28 00:45:41;;;;;;;19.27;10.23;;;20.80;99.90;;;;;;4998094;28;20030;-69
2022/05/28 00:48:09;;;;;;;16.40;10.07;;;20.80;99.90;;;;;;4955302;28;1157528;-72
2022/05/28 00:50:36;;;;;;;18.63;10.05;;;20.90;99.90;;;;;;4996087;28;20042;-65
2022/05/28 00:53:04;;;;;;;17.52;9.77;;;20.90;99.90;;;;;;4995771;28;20033;-72
2022/05/28 00:55:34;;;;;;;22.85;11.50;;;21.00;99.90;;;;;;4995805;28;20030;-71
2022/05/28 00:58:05;;;;;;;17.55;10.82;;;21.00;99.90;;;;;;4995880;28;20057;-65
2022/05/28 01:00:33;;;;;;;15.93;9.75;;;21.00;99.90;;;;;;4995919;28;20514;-71
2022/05/28 01:03:20;;;;;;;22.40;9.63;;;20.90;99.90;;;;;;4999297;28;20054;-71
2022/05/28 01:06:14;;;;;;;19.83;10.38;;;20.90;99.90;;;;;;4999683;28;20041;-67
2022/05/28 01:09:05;;;;;;;15.93;9.88;;;20.90;99.90;;;;;;4995254;28;20174;-69
2022/05/28 01:11:40;;;;;;;14.02;9.13;;;20.90;99.90;;;;;;4994593;28;20062;-72
2022/05/28 01:14:20;;;;;;;14.23;9.40;;;20.90;99.90;;;;;;4995395;28;20026;-71
2022/05/28 01:16:50;;;;;;;14.52;8.55;;;20.90;99.90;;;;;;4995173;28;20022;-70
2022/05/28 01:19:32;;;;;;;21.25;9.55;;;20.90;99.90;;;;;;4995526;28;20030;-72
2022/05/28 01:22:12;;;;;;;15.75;9.68;;;20.80;99.90;;;;;;5007139;28;20030;-71
2022/05/28 01:25:00;;;;;;;14.48;9.77;;;20.70;99.90;;;;;;5025973;28;20039;-71
2022/05/28 01:27:34;;;;;;;18.98;10.77;;;20.70;99.90;;;;;;4994228;28;20044;-71
2022/05/28 01:30:08;;;;;;;20.30;11.13;;;20.60;99.90;;;;;;4995153;28;20055;-71
2022/05/28 01:32:35;;;;;;;19.52;11.40;;;20.60;99.90;;;;;;4994801;28;20033;-71
2022/05/28 01:35:07;;;;;;;35.75;22.27;;;20.60;99.90;;;;;;4990102;28;20540;-72
2022/05/28 01:37:34;;;;;;;;;;;20.60;99.90;;;;;;4995084;28;20444;-72
2022/05/28 01:40:04;;;;;;;19.50;12.32;;;20.60;99.90;;;;;;4994605;28;19941;-71
2022/05/28 01:42:32;;;;;;;16.52;11.00;;;20.50;99.90;;;;;;4994919;28;20085;-71
2022/05/28 01:45:00;;;;;;;19.65;11.38;;;20.50;99.90;;;;;;4994506;28;20026;-71
2022/05/28 01:47:28;;;;;;;18.95;10.07;;;20.40;99.90;;;;;;4994076;28;20057;-71
2022/05/28 01:49:55;;;;;;;16.98;10.80;;;20.40;99.90;;;;;;4994286;28;20034;-71
2022/05/28 01:52:22;;;;;;;16.65;10.73;;;20.30;99.90;;;;;;4994675;28;20054;-71
2022/05/28 01:54:49;;;;;;;21.48;11.70;;;20.40;99.90;;;;;;4994619;28;20030;-72
2022/05/28 01:57:15;;;;;;;23.17;11.20;;;20.40;99.90;;;;;;4995550;28;20026;-64
2022/05/28 01:59:41;;;;;;;18.42;10.93;;;20.20;99.90;;;;;;4994665;28;20027;-71
2022/05/28 02:02:12;;;;;;;22.50;10.65;;;19.90;99.90;;;;;;4983247;28;20037;-71
2022/05/28 02:04:40;;;;;;;20.67;10.88;;;19.80;99.90;;;;;;4974141;28;20081;-71
2022/05/28 02:07:06;;;;;;;9.55;5.95;;;19.70;99.90;;;;;;4974532;28;20101;-71
2022/05/28 02:09:36;;;;;;;11.70;5.97;;;19.80;99.90;;;;;;4975005;28;20130;-68
2022/05/28 02:12:23;;;;;;;10.30;5.43;;;19.80;99.90;;;;;;4973398;28;20027;-71
2022/05/28 02:15:01;;;;;;;12.32;3.63;;;19.80;99.90;;;;;;4973209;28;20038;-71
2022/05/28 02:17:39;;;;;;;5.57;2.60;;;19.90;99.90;;;;;;4972623;28;20122;-71
2022/05/28 02:20:24;;;;;;;7.15;2.47;;;19.70;99.90;;;;;;4973385;28;20105;-69
2022/05/28 02:23:05;;;;;;;4.07;2.10;;;19.50;99.90;;;;;;4973303;28;20039;-70
2022/05/28 02:25:40;;;;;;;2.85;1.70;;;19.30;99.90;;;;;;4972793;28;20035;-71
2022/05/28 02:28:09;;;;;;;11.52;2.60;;;19.00;99.90;;;;;;4972944;28;20035;-68
2022/05/28 02:30:49;;;;;;;11.23;2.97;;;18.90;99.90;;;;;;4972985;28;20115;-71
2022/05/28 02:33:15;;;;;;;7.60;2.38;;;18.80;99.90;;;;;;4973047;28;20027;-71
2022/05/28 02:35:41;;;;;;;7.57;2.30;;;18.70;99.90;;;;;;4973390;28;20026;-71
2022/05/28 02:38:07;;;;;;;6.82;1.83;;;18.50;99.90;;;;;;4973109;28;20049;-69
2022/05/28 02:40:33;;;;;;;8.00;2.25;;;18.40;99.90;;;;;;4974758;28;20029;-71
2022/05/28 02:42:59;;;;;;;10.38;2.15;;;18.20;99.90;;;;;;4973333;28;20030;-67
2022/05/28 02:45:24;;;;;;;7.75;2.53;;;17.90;99.90;;;;;;4972711;28;20019;-65
2022/05/28 02:47:50;;;;;;;14.75;2.45;;;17.80;99.90;;;;;;4972244;28;20068;-67
2022/05/28 02:50:16;;;;;;;18.98;2.97;;;17.60;99.90;;;;;;4978555;28;20031;-70
2022/05/28 02:52:43;;;;;;;7.80;2.60;;;17.50;99.90;;;;;;4993623;28;20380;-72
2022/05/28 02:55:09;;;;;;;5.53;2.42;;;17.50;99.90;;;;;;4993127;28;20026;-71
2022/05/28 02:57:35;;;;;;;5.88;2.05;;;17.50;99.90;;;;;;5012114;28;20491;-72
2022/05/28 03:00:03;;;;;;;6.35;2.35;;;17.40;99.90;;;;;;5007252;28;20380;-69
2022/05/28 03:02:29;;;;;;;7.18;2.63;;;17.40;99.90;;;;;;4993913;28;20030;-70
2022/05/28 03:04:55;;;;;;;4.65;2.15;;;17.40;99.90;;;;;;4993002;28;20045;-71
2022/05/28 03:07:21;;;;;;;7.95;2.10;;;17.40;99.90;;;;;;4993158;28;20038;-70
2022/05/28 03:09:47;;;;;;;7.55;2.58;;;17.40;99.90;;;;;;4992826;28;20021;-72
2022/05/28 03:12:13;;;;;;;6.82;1.90;;;17.40;99.90;;;;;;5023866;28;20022;-70
2022/05/28 03:14:39;;;;;;;7.82;2.70;;;17.40;99.90;;;;;;4993634;28;20109;-72
2022/05/28 03:17:05;;;;;;;8.15;2.42;;;17.40;99.90;;;;;;4996110;28;20038;-67
2022/05/28 03:19:30;;;;;;;4.47;2.17;;;17.50;99.90;;;;;;4999701;28;20026;-72
2022/05/28 03:21:56;;;;;;;10.07;2.85;;;17.50;99.90;;;;;;5000216;28;20526;-72
2022/05/28 03:24:22;;;;;;;5.00;2.22;;;17.50;99.90;;;;;;5010195;28;20043;-71
2022/05/28 03:26:48;;;;;;;6.75;2.75;;;17.50;99.90;;;;;;5000271;28;20049;-72
2022/05/28 03:29:14;;;;;;;3.55;1.90;;;17.50;99.90;;;;;;4992157;28;20037;-71
2022/05/28 03:31:40;;;;;;;4.55;2.35;;;17.40;99.90;;;;;;4991719;28;20023;-72
2022/05/28 03:34:05;;;;;;;4.15;2.08;;;17.40;99.90;;;;;;4992741;28;20535;-72
2022/05/28 03:36:31;;;;;;;2.58;1.95;;;17.40;99.90;;;;;;4992750;28;20034;-72
2022/05/28 03:38:57;;;;;;;7.45;2.75;;;17.50;99.90;;;;;;4993029;28;20117;-72
2022/05/28 03:41:25;;;;;;;7.43;2.55;;;17.50;99.90;;;;;;4992464;28;20479;-71
2022/05/28 03:43:51;;;;;;;4.32;2.13;;;17.50;99.90;;;;;;5024256;28;20435;-71
2022/05/28 03:46:31;;;;;;;4.78;2.40;;;17.50;99.90;;;;;;4992864;28;20023;-71
2022/05/28 03:49:14;;;;;;;4.85;2.40;;;17.60;99.90;;;;;;4992185;28;20046;-71
2022/05/28 03:51:40;;;;;;;5.30;2.13;;;17.60;99.90;;;;;;4975143;28;20042;-70
2022/05/28 03:54:06;;;;;;;2.75;2.17;;;17.70;99.90;;;;;;4972186;28;20027;-71
2022/05/28 03:56:37;;;;;;;4.10;2.47;;;17.70;99.90;;;;;;4971611;28;20031;-71
2022/05/28 03:59:04;;;;;;;3.17;2.30;;;17.80;99.90;;;;;;4971724;28;20051;-69
2022/05/28 04:01:31;;;;;;;4.57;2.60;;;17.80;99.90;;;;;;4972059;28;20556;-71
2022/05/28 04:03:56;;;;;;;6.15;2.83;;;17.80;99.90;;;;;;4971917;28;20448;-72
2022/05/28 04:06:23;;;;;;;6.10;3.10;;;17.80;99.90;;;;;;4971852;28;20046;-73
2022/05/28 04:08:49;;;;;;;5.28;2.40;;;17.90;99.90;;;;;;4972141;28;20042;-72
2022/05/28 04:11:15;;;;;;;4.63;2.38;;;17.90;99.90;;;;;;4973775;28;21391;-71
2022/05/28 04:13:41;;;;;;;6.45;3.25;;;17.90;99.90;;;;;;4969295;28;20042;-70
2022/05/28 04:16:07;;;;;;;10.27;3.22;;;17.90;99.90;;;;;;4971294;28;20085;-71
2022/05/28 04:18:33;;;;;;;4.85;2.40;;;17.90;99.90;;;;;;4971452;28;20065;-70
2022/05/28 04:20:59;;;;;;;5.55;2.35;;;18.00;99.90;;;;;;4971618;28;20046;-72
2022/05/28 04:23:25;;;;;;;8.05;2.78;;;18.10;99.90;;;;;;5002665;28;20141;-71
2022/05/28 04:25:51;;;;;;;4.63;2.78;;;18.10;99.90;;;;;;4970982;28;20027;-72
2022/05/28 04:28:17;;;;;;;6.43;3.17;;;18.10;99.90;;;;;;4970965;28;20059;-72
2022/05/28 04:30:43;;;;;;;3.70;2.13;;;18.20;99.90;;;;;;4971397;28;20104;-73
2022/05/28 04:33:09;;;;;;;6.30;3.00;;;18.10;99.90;;;;;;4971153;28;20085;-71
2022/05/28 04:35:35;;;;;;;7.22;2.70;;;18.30;99.90;;;;;;4971212;28;20023;-72
2022/05/28 04:38:01;;;;;;;10.98;3.22;;;18.30;99.90;;;;;;4971044;28;20477;-72
2022/05/28 04:40:27;;;;;;;5.18;2.83;;;18.30;99.90;;;;;;4971953;28;20393;-72
2022/05/28 04:42:53;;;;;;;5.10;2.67;;;18.30;99.90;;;;;;4974980;28;20030;-70
2022/05/28 04:45:19;;;;;;;7.68;2.92;;;18.40;99.90;;;;;;4974993;28;20023;-72
2022/05/28 04:47:45;;;;;;;8.63;2.60;;;18.60;99.90;;;;;;4974624;28;20481;-72
2022/05/28 04:50:11;;;;;;;7.45;2.63;;;18.60;99.90;;;;;;4974868;28;20031;-71
2022/05/28 04:52:38;;;;;;;3.42;2.42;;;18.80;99.90;;;;;;4977853;28;20080;-72
2022/05/28 04:55:06;;;;;;;4.80;2.92;;;18.90;99.90;;;;;;4975434;28;20019;-68
2022/05/28 04:57:33;;;;;;;4.40;2.60;;;19.00;99.90;;;;;;4973844;28;20038;-70
2022/05/28 04:59:59;;;;;;;4.85;2.72;;;19.00;99.90;;;;;;4974726;28;20023;-71
2022/05/28 05:02:24;;;;;;;4.95;2.22;;;19.10;99.90;;;;;;4978608;28;20493;-72
2022/05/28 05:04:55;;;;;;;5.88;2.85;;;19.20;99.90;;;;;;4974274;28;20378;-72
2022/05/28 05:07:21;;;;;;;4.32;2.40;;;19.20;99.90;;;;;;4974060;28;20042;-72
2022/05/28 05:09:47;;;;;;;5.68;2.03;;;19.20;99.90;;;;;;4984200;28;20023;-70
2022/05/28 05:12:13;;;;;;;7.70;2.55;;;19.30;99.90;;;;;;4974386;28;20035;-71
2022/05/28 05:14:38;;;;;;;3.55;2.22;;;19.40;99.90;;;;;;4974053;28;20050;-72
2022/05/28 05:17:04;;;;;;;6.30;2.58;;;19.40;99.90;;;;;;4974103;28;20065;-72
2022/05/28 05:19:30;;;;;;;8.13;3.00;;;19.30;99.90;;;;;;4974252;28;20037;-71
2022/05/28 05:21:56;;;;;;;7.28;2.65;;;19.30;99.90;;;;;;4974040;28;20030;-71
2022/05/28 05:24:23;;;;;;;10.05;2.85;;;19.20;99.90;;;;;;4978291;28;20022;-71
2022/05/28 05:26:49;;;;;;;6.70;3.30;;;19.10;99.90;;;;;;4973924;28;20066;-71
2022/05/28 05:29:15;;;;;;;7.47;2.20;;;19.00;99.90;;;;;;4974228;28;20055;-71
2022/05/28 05:31:42;;;;;;;11.60;2.42;;;19.00;99.90;;;;;;4974179;28;20030;-72
2022/05/28 05:34:08;;;;;;;6.03;2.70;;;18.80;99.90;;;;;;4973988;28;20027;-71
2022/05/28 05:36:35;;;;;;;4.22;2.08;;;18.70;99.90;;;;;;4979037;28;20379;-71
2022/05/28 05:39:01;;;;;;;13.52;3.25;;;18.70;99.90;;;;;;4974515;28;20101;-70
2022/05/28 05:41:27;;;;;;;8.95;2.63;;;18.60;99.90;;;;;;4973854;28;20061;-70
2022/05/28 05:43:53;;;;;;;4.70;2.72;;;18.50;99.90;;;;;;4980828;28;20540;-71
2022/05/28 05:46:19;;;;;;;6.00;2.65;;;18.40;99.90;;;;;;4973599;28;20039;-71
2022/05/28 05:48:45;;;;;;;7.35;2.17;;;18.20;99.90;;;;;;4973526;28;20062;-70
2022/05/28 05:51:13;;;;;;;3.38;2.22;;;18.20;99.90;;;;;;4973787;28;20089;-71
2022/05/28 05:53:39;;;;;;;8.52;2.85;;;18.20;99.90;;;;;;4972791;28;20026;-70
2022/05/28 05:56:06;;;;;;;6.28;2.95;;;18.20;99.90;;;;;;4973397;28;20436;-71
2022/05/28 05:58:34;;;;;;;9.40;3.08;;;18.10;99.90;;;;;;4973312;28;20038;-71
2022/05/28 06:01:02;;;;;;;7.45;2.88;;;18.00;99.90;;;;;;4973490;28;20023;-70
2022/05/28 06:03:29;;;;;;;6.57;2.95;;;17.90;99.90;;;;;;4973722;28;20255;-71
2022/05/28 06:06:04;;;;;;;7.03;3.53;;;17.90;99.90;;;;;;4981404;28;20477;-71
2022/05/28 06:08:30;;;;;;;8.40;3.00;;;18.00;99.90;;;;;;4972911;28;20043;-67
2022/05/28 06:10:56;;;;;;;10.43;3.08;;;18.00;99.90;;;;;;4972920;28;20025;-68
2022/05/28 06:13:22;;;;;;;4.20;2.80;;;18.00;99.90;;;;;;4973163;28;20031;-69
2022/05/28 06:15:47;;;;;;;4.85;2.72;;;18.00;99.90;;;;;;4968211;28;20384;-68
2022/05/28 06:18:15;;;;;;;6.80;3.28;;;18.20;99.90;;;;;;4970071;28;20077;-69
2022/05/28 06:20:40;;;;;;;6.07;2.92;;;18.20;99.90;;;;;;4975316;28;20033;-70
2022/05/28 06:23:07;;;;;;;3.42;2.97;;;18.30;99.90;;;;;;4976179;28;20027;-71
2022/05/28 06:25:33;;;;;;;6.60;2.63;;;18.30;99.90;;;;;;4980401;28;20026;-71
2022/05/28 06:27:59;;;;;;;5.63;3.00;;;18.30;99.90;;;;;;4988809;28;20026;-70
2022/05/28 06:30:25;;;;;;;9.55;3.63;;;18.30;99.90;;;;;;4981957;28;20030;-66
2022/05/28 06:32:51;;;;;;;6.50;3.45;;;18.20;99.90;;;;;;4985781;28;20035;-70
2022/05/28 06:35:17;;;;;;;6.45;2.55;;;18.20;99.90;;;;;;4981058;28;20030;-68
2022/05/28 06:37:43;;;;;;;5.78;3.17;;;18.10;99.90;;;;;;4984036;28;20117;-69
2022/05/28 06:40:09;;;;;;;5.55;2.47;;;18.10;99.90;;;;;;4980279;28;20497;-69
2022/05/28 06:42:35;;;;;;;4.10;2.50;;;17.90;99.90;;;;;;4984578;28;20029;-67
2022/05/28 06:45:01;;;;;;;8.00;3.13;;;17.70;99.90;;;;;;4983725;28;20022;-71
2022/05/28 06:47:27;;;;;;;3.47;2.50;;;17.60;99.90;;;;;;4985468;28;20133;-70
2022/05/28 06:52:37;;;;;;;6.15;3.08;;;17.50;99.90;;;;;;4972401;28;20027;-71
2022/05/28 06:55:06;;;;;;;6.68;3.42;;;17.40;99.90;;;;;;4981904;28;20027;-70
2022/05/28 06:57:31;;;;;;;7.88;3.67;;;17.30;99.90;;;;;;4984117;28;20026;-67
2022/05/28 07:00:00;;;;;;;6.68;3.55;;;17.30;99.90;;;;;;4982877;28;20065;-71
2022/05/28 07:02:26;;;;;;;7.40;3.53;;;17.30;99.90;;;;;;4986540;28;20034;-64
2022/05/28 07:04:52;;;;;;;6.93;4.10;;;17.20;99.90;;;;;;4972904;28;20015;-66
2022/05/28 07:07:18;;;;;;;7.57;3.38;;;17.30;99.90;;;;;;4976978;28;20030;-68
2022/05/28 07:09:43;;;;;;;5.47;2.53;;;17.30;99.90;;;;;;4974081;28;20452;-68
2022/05/28 07:12:10;;;;;;;4.97;2.40;;;17.30;99.90;;;;;;4984866;28;20380;-70
2022/05/28 07:14:36;;;;;;;4.60;2.88;;;17.50;99.90;;;;;;4982502;28;20022;-67
2022/05/28 07:17:02;;;;;;;6.05;4.05;;;17.50;99.90;;;;;;4978238;28;20029;-71
2022/05/28 07:19:29;;;;;;;4.93;3.25;;;17.70;99.90;;;;;;4983329;28;20069;-71
2022/05/28 07:21:55;;;;;;;5.57;3.10;;;17.90;99.90;;;;;;4981638;28;20042;-71
2022/05/28 07:24:21;;;;;;;9.27;2.78;;;18.10;99.90;;;;;;4983655;28;20026;-71
2022/05/28 07:26:53;;;;;;;6.05;2.05;;;18.10;99.90;;;;;;4983746;28;20546;-71
2022/05/28 07:29:19;;;;;;;3.20;2.40;;;18.20;99.90;;;;;;4978791;28;20583;-69
2022/05/28 07:31:45;;;;;;;3.88;2.13;;;18.40;99.90;;;;;;4971903;28;20084;-69
2022/05/28 07:34:12;;;;;;;4.20;2.97;;;18.50;99.90;;;;;;4972035;28;20027;-68
2022/05/28 07:36:38;;;;;;;5.18;2.30;;;18.60;99.90;;;;;;4971988;28;20022;-72
2022/05/28 07:39:05;;;;;;;5.40;2.83;;;18.80;99.90;;;;;;4971855;28;20034;-70
2022/05/28 07:41:31;;;;;;;4.32;2.50;;;19.00;99.90;;;;;;4971550;28;20029;-65
2022/05/28 07:43:57;;;;;;;6.15;2.83;;;19.10;99.90;;;;;;4978880;28;20070;-65
2022/05/28 07:46:26;;;;;;;3.35;2.05;;;19.00;99.90;;;;;;4976938;28;20116;-71
2022/05/28 07:48:54;;;;;;;4.93;2.33;;;19.10;99.90;;;;;;4978565;28;20048;-71
2022/05/28 07:51:20;;;;;;;4.25;2.20;;;19.20;99.90;;;;;;4975618;28;20396;-69
2022/05/28 07:53:45;;;;;;;6.22;2.53;;;19.10;99.90;;;;;;4975886;28;20023;-67
2022/05/28 07:56:12;;;;;;;6.78;2.47;;;19.00;99.90;;;;;;4972156;28;20695;-67
2022/05/28 07:58:39;;;;;;;4.07;2.35;;;19.00;99.90;;;;;;4981846;28;20141;-70
2022/05/28 08:01:06;;;;;;;8.18;2.72;;;19.00;99.90;;;;;;4992589;28;20018;-68
2022/05/28 08:03:33;;;;;;;4.97;1.98;;;19.00;99.90;;;;;;4992331;28;20396;-71
2022/05/28 08:05:59;;;;;;;5.78;2.13;;;19.00;99.90;;;;;;4992792;28;20132;-70
2022/05/28 08:08:27;;;;;;;5.38;2.47;;;19.00;99.90;;;;;;4992484;28;20459;-66
2022/05/28 08:10:53;;;;;;;6.88;2.40;;;18.70;99.90;;;;;;4991987;28;20492;-70
2022/05/28 08:13:22;;;;;;;5.53;2.65;;;18.50;99.90;;;;;;4990612;28;20595;-70
2022/05/28 08:15:50;;;;;;;3.58;2.30;;;18.40;99.90;;;;;;4992468;28;20053;-70
2022/05/28 08:18:19;;;;;;;4.22;2.83;;;18.20;99.90;;;;;;4995989;28;20019;-69
2022/05/28 08:23:29;;;;;;;11.68;2.83;;;18.00;99.90;;;;;;4995425;28;20034;-68
2022/05/28 08:25:55;;;;;;;3.53;2.40;;;17.90;99.90;;;;;;4994907;28;20037;-70
2022/05/28 08:28:21;;;;;;;4.05;2.45;;;17.90;99.90;;;;;;4995733;28;20042;-71
2022/05/28 08:30:48;;;;;;;5.30;3.03;;;17.90;99.90;;;;;;4995874;28;20393;-68
2022/05/28 08:33:16;;;;;;;3.80;2.88;;;17.90;99.90;;;;;;4995794;28;20034;-69
2022/05/28 08:35:43;;;;;;;4.80;3.03;;;17.80;99.90;;;;;;4996231;28;20018;-70
2022/05/28 08:38:12;;;;;;;6.10;2.60;;;17.80;99.90;;;;;;4996068;28;20081;-69
2022/05/28 08:40:58;;;;;;;6.15;2.85;;;17.90;99.90;;;;;;4995877;28;20065;-71
2022/05/28 08:43:33;;;;;;;4.10;2.50;;;17.70;99.90;;;;;;4995354;28;20492;-72
2022/05/28 08:45:59;;;;;;;6.25;2.75;;;17.80;99.90;;;;;;4986713;28;20109;-72
2022/05/28 08:48:37;;;;;;;5.18;2.55;;;17.80;99.90;;;;;;4995370;28;20096;-71
2022/05/28 08:51:28;;;;;;;4.70;2.55;;;17.70;99.90;;;;;;4995925;28;20388;-70
2022/05/28 08:54:32;;;;;;;3.83;2.42;;;17.80;99.90;;;;;;4991565;28;20092;-67
2022/05/28 08:57:11;;;;;;;3.65;2.88;;;17.80;99.90;;;;;;4995579;28;20392;-68
2022/05/28 08:59:53;;;;;;;4.47;2.25;;;17.80;99.90;;;;;;4995771;28;20385;-70
2022/05/28 09:02:46;;;;;;;3.60;2.22;;;17.70;99.90;;;;;;4995426;28;20129;-69
2022/05/28 09:05:25;;;;;;;;;;;17.50;99.90;;;;;;4995805;28;20113;-68
2022/05/28 09:07:54;;;;;;;5.47;2.90;;;17.50;99.90;;;;;;4995092;28;19971;-68
2022/05/28 09:10:20;;;;;;;5.32;2.85;;;17.40;99.90;;;;;;4995533;28;20026;-70
2022/05/28 09:12:54;;;;;;;5.80;2.78;;;17.40;99.90;;;;;;4995162;28;20482;-71
2022/05/28 09:15:21;;;;;;;2.88;2.17;;;17.50;99.90;;;;;;4995032;28;20037;-69
2022/05/28 09:17:51;;;;;;;3.55;2.30;;;17.40;99.90;;;;;;4995082;28;20077;-71
2022/05/28 09:20:21;;;;;;;16.92;3.70;;;17.40;99.90;;;;;;4995166;28;20388;-71
2022/05/28 09:22:48;;;;;;;4.63;2.20;;;17.30;99.90;;;;;;4995391;28;20065;-70
2022/05/28 09:25:18;;;;;;;2.72;1.70;;;17.20;99.90;;;;;;4995167;28;20106;-69
2022/05/28 09:28:00;;;;;;;5.82;2.30;;;17.10;99.90;;;;;;4993231;28;20053;-70
2022/05/28 09:30:47;;;;;;;4.82;2.30;;;17.10;99.90;;;;;;4994343;28;20384;-72
2022/05/28 09:33:35;;;;;;;3.63;2.42;;;17.00;99.90;;;;;;4994315;28;20097;-70
2022/05/28 09:36:14;;;;;;;4.28;2.25;;;16.90;99.90;;;;;;4990816;28;20037;-70
2022/05/28 09:39:00;;;;;;;5.13;2.53;;;16.90;99.90;;;;;;4993535;28;20038;-70
2022/05/28 09:41:39;;;;;;;5.10;2.50;;;16.90;99.90;;;;;;4995613;28;20030;-68
2022/05/28 09:44:29;;;;;;;6.50;3.53;;;16.90;99.90;;;;;;4992647;28;20049;-70
2022/05/28 09:47:07;;;;;;;7.57;3.85;;;16.90;99.90;;;;;;4991053;28;20677;-71
2022/05/28 09:49:34;;;;;;;7.05;3.75;;;17.00;99.90;;;;;;5005580;28;20152;-71
2022/05/28 09:52:10;;;;;;;5.05;3.33;;;17.00;99.90;;;;;;4993200;28;20544;-69
2022/05/28 09:54:37;;;;;;;6.55;3.28;;;17.10;99.90;;;;;;4983453;28;20405;-70
2022/05/28 09:57:10;;;;;;;3.65;2.38;;;17.20;99.90;;;;;;4992510;28;20014;-69
2022/05/28 09:59:49;;;;;;;;;;;17.20;99.90;;;;;;4989401;28;20129;-69
2022/05/28 10:02:18;;;;;;;2.25;1.73;;;17.30;99.90;;;;;;4991801;28;20434;-71
2022/05/28 10:05:02;;;;;;;2.38;1.27;;;17.20;99.90;;;;;;5008138;28;20104;-70
2022/05/28 10:07:41;;;;;;;2.22;1.45;;;17.10;99.90;;;;;;5005441;28;20035;-70
2022/05/28 10:10:22;;;;;;;2.28;1.52;;;17.30;99.90;;;;;;4991801;28;20014;-70
2022/05/28 10:12:49;;;;;;;4.35;1.65;;;17.40;99.90;;;;;;4986151;28;20053;-70
2022/05/28 10:15:18;;;;;;;3.65;1.35;;;17.50;99.90;;;;;;4992848;28;20045;-70
2022/05/28 10:17:57;;;;;;;1.50;0.93;;;17.40;99.90;;;;;;4993286;28;20045;-70
2022/05/28 10:20:24;;;;;;;1.83;1.15;;;17.50;99.90;;;;;;4993571;28;20510;-71
2022/05/28 10:22:52;;;;;;;3.53;2.00;;;17.40;99.90;;;;;;4993207;28;20488;-70
2022/05/28 10:25:47;;;;;;;6.18;1.65;;;17.20;99.90;;;;;;4994810;28;20026;-70
2022/05/28 10:28:13;;;;;;;2.03;1.45;;;17.20;99.90;;;;;;5006731;28;20120;-72
2022/05/28 10:30:42;;;;;;;1.52;1.13;;;17.30;99.90;;;;;;4992736;28;20548;-69
2022/05/28 10:33:20;;;;;;;4.70;1.67;;;17.30;99.90;;;;;;5009771;28;20030;-71
2022/05/28 10:35:47;;;;;;;2.58;1.42;;;17.20;99.90;;;;;;4993391;28;20030;-69
2022/05/28 10:38:16;;;;;;;2.03;1.20;;;17.30;99.90;;;;;;4990445;28;20018;-70
2022/05/28 10:41:21;;;;;;;2.90;1.10;;;17.20;99.90;;;;;;4972007;28;20481;-70
2022/05/28 10:43:49;;;;;;;3.13;1.20;;;17.10;99.90;;;;;;5000822;28;20030;-71
2022/05/28 10:46:27;;;;;;;3.35;1.20;;;17.20;99.90;;;;;;5009891;28;20112;-70
2022/05/28 10:49:11;;;;;;;3.90;1.35;;;17.10;99.90;;;;;;5010424;28;20568;-70
2022/05/28 10:52:03;;;;;;;2.97;1.35;;;17.10;99.90;;;;;;5010513;28;20494;-70
2022/05/28 10:55:03;;;;;;;1.20;1.00;;;17.00;99.90;;;;;;5009473;28;20038;-72
2022/05/28 10:57:34;;;;;;;2.10;1.27;;;16.90;99.90;;;;;;4990203;28;20500;-71
2022/05/28 11:00:05;;;;;;;4.53;1.38;;;16.70;99.90;;;;;;4990556;28;20548;-71
2022/05/28 11:02:31;;;;;;;3.55;1.98;;;16.70;99.90;;;;;;4990369;28;20065;-71
2022/05/28 11:05:24;;;;;;;3.03;1.23;;;16.70;99.90;;;;;;4990885;28;20577;-70
2022/05/28 11:08:18;;;;;;;1.63;1.27;;;16.80;99.90;;;;;;4990090;28;20053;-70
2022/05/28 11:11:04;;;;;;;3.40;1.40;;;16.80;99.90;;;;;;4990453;28;20034;-70
2022/05/28 11:13:40;;;;;;;2.42;1.80;;;16.90;99.90;;;;;;4989500;28;20042;-73
2022/05/28 11:16:38;;;;;;;4.50;1.80;;;16.80;99.90;;;;;;4989571;28;20032;-72
2022/05/28 11:19:06;;;;;;;5.07;2.08;;;16.80;99.90;;;;;;4990126;28;20113;-72
2022/05/28 11:21:52;;;;;;;4.95;1.85;;;16.80;99.90;;;;;;4967471;28;20039;-71
2022/05/28 11:24:36;;;;;;;4.22;2.05;;;16.90;99.90;;;;;;4969127;28;20041;-73
2022/05/28 11:27:33;;;;;;;4.35;2.83;;;16.90;99.90;;;;;;4969304;28;20047;-71
2022/05/28 11:30:17;;;;;;;4.55;2.05;;;16.90;99.90;;;;;;4967494;28;20513;-72
2022/05/28 11:32:55;;;;;;;3.10;2.10;;;17.00;99.90;;;;;;4970649;28;20027;-71
2022/05/28 11:35:39;;;;;;;3.85;2.22;;;16.90;99.90;;;;;;4991940;28;20473;-72
2022/05/28 11:38:05;;;;;;;2.70;1.90;;;17.10;99.90;;;;;;4991909;28;20026;-72
2022/05/28 11:40:56;;;;;;;6.22;2.45;;;17.00;99.90;;;;;;4991581;28;20366;-72
2022/05/28 11:43:31;;;;;;;4.78;2.33;;;17.10;99.90;;;;;;4988575;28;20046;-71
2022/05/28 11:46:34;;;;;;;3.72;2.10;;;17.00;99.90;;;;;;4992130;28;20029;-69
2022/05/28 11:52:12;;;;;;;6.13;2.05;;;16.80;99.90;;;;;;4990704;28;20033;-70
2022/05/28 11:54:46;;;;;;;6.05;1.80;;;17.00;99.90;;;;;;5016249;28;20388;-73
2022/05/28 11:57:40;;;;;;;2.80;1.70;;;16.90;99.90;;;;;;5004702;28;20287;-70
2022/05/28 12:00:10;;;;;;;2.28;1.60;;;17.00;99.90;;;;;;4994310;28;20046;-68
2022/05/28 12:03:07;;;;;;;2.60;1.80;;;16.90;99.90;;;;;;4994592;28;20031;-69
2022/05/28 12:06:08;;;;;;;5.13;1.55;;;17.00;99.90;;;;;;4993168;28;20042;-65
2022/05/28 12:08:42;;;;;;;6.22;1.88;;;16.90;99.90;;;;;;4990627;28;20050;-68
2022/05/28 12:11:19;;;;;;;4.32;2.47;;;17.00;99.90;;;;;;4988248;28;20061;-69
2022/05/28 12:14:07;;;;;;;12.60;2.60;;;16.90;99.90;;;;;;4991495;28;20034;-71
2022/05/28 12:16:42;;;;;;;7.65;2.50;;;16.80;99.90;;;;;;4989476;28;20100;-72
2022/05/28 12:19:14;;;;;;;4.05;1.65;;;16.70;99.90;;;;;;4991851;28;20121;-70
2022/05/28 12:21:42;;;;;;;4.70;2.03;;;16.70;99.90;;;;;;4990063;28;20030;-70
2022/05/28 12:24:12;;;;;;;4.63;2.03;;;16.60;99.90;;;;;;4993470;28;20041;-70
2022/05/28 12:27:13;;;;;;;7.20;2.53;;;16.60;99.90;;;;;;4993172;28;20041;-72
2022/05/28 12:29:57;;;;;;;3.35;2.13;;;16.50;99.90;;;;;;4992992;28;20045;-68
2022/05/28 12:32:27;;;;;;;3.63;1.83;;;16.50;99.90;;;;;;4993445;28;20104;-72
2022/05/28 12:35:18;;;;;;;4.13;2.33;;;16.50;99.90;;;;;;4993463;28;20237;-67
2022/05/28 12:38:10;;;;;;;3.53;2.33;;;16.50;99.90;;;;;;4988883;28;20177;-69
2022/05/28 12:40:47;;;;;;;5.82;1.83;;;16.50;99.90;;;;;;4977427;28;20030;-64
2022/05/28 12:43:16;;;;;;;4.55;2.25;;;16.50;99.90;;;;;;4975263;28;20045;-71
2022/05/28 12:45:45;;;;;;;5.25;2.88;;;16.50;99.90;;;;;;4984544;28;20022;-71
2022/05/28 12:48:11;;;;;;;4.38;2.50;;;16.60;99.90;;;;;;4974273;28;20079;-66
2022/05/28 12:51:04;;;;;;;4.40;3.03;;;16.70;99.90;;;;;;4985553;28;20121;-67
2022/05/28 12:53:49;;;;;;;;;;;16.60;99.90;;;;;;5009306;28;20037;-71
2022/05/28 12:56:25;;;;;;;3.22;2.03;;;16.60;99.90;;;;;;5008363;28;19918;-71
2022/05/28 12:58:52;;;;;;;3.42;2.35;;;16.60;99.90;;;;;;4974922;28;20023;-70
2022/05/28 13:01:26;;;;;;;6.25;2.72;;;16.60;99.90;;;;;;4991608;28;20033;-70
2022/05/28 13:03:53;;;;;;;5.50;2.60;;;16.60;99.90;;;;;;4992452;28;20476;-71
2022/05/28 13:06:30;;;;;;;4.90;2.70;;;16.60;99.90;;;;;;4990561;28;20029;-71
2022/05/28 13:08:59;;;;;;;4.10;2.67;;;16.60;99.90;;;;;;4974691;28;20035;-67
2022/05/28 13:11:36;;;;;;;4.65;2.58;;;16.50;99.90;;;;;;5008445;28;20054;-71
2022/05/28 13:14:31;;;;;;;6.72;3.60;;;16.50;99.90;;;;;;4993045;28;20030;-72
2022/05/28 13:17:12;;;;;;;4.90;3.08;;;16.50;99.90;;;;;;4994760;28;20507;-70